Time;durP1;ratioP1;P1;durP2;ratioP2;P2;SDS_P1;SDS_P2;PMS_P1;PMS_P2;Temp;Humidity;BMP_temperature;BMP_pressure;BME280_temperature;BME280_humidity;BME280_pressure;Samples;Min_cycle;Max_cycle;Signal;HPM_P1;HPM_P2
2024/02/01 00:00:40;;;;;;;1999.90;999.90;;;9.60;99.90;;;;;;4995249;28;20977;-69
2024/02/01 00:03:06;;;;;;;1999.90;999.90;;;9.60;99.90;;;;;;4994747;28;20219;-70
2024/02/01 00:05:31;;;;;;;1999.90;999.90;;;9.60;99.90;;;;;;4995004;28;20247;-69
2024/02/01 00:07:57;;;;;;;1999.90;999.90;;;9.40;99.90;;;;;;4994859;28;20174;-68
2024/02/01 00:10:22;;;;;;;1999.90;999.90;;;9.60;99.90;;;;;;4994714;28;20170;-68
2024/02/01 00:12:48;;;;;;;1999.90;999.90;;;9.30;99.90;;;;;;4994850;28;20191;-69
2024/02/01 00:15:14;;;;;;;1999.90;999.90;;;9.20;99.90;;;;;;4994889;28;20237;-70
2024/02/01 00:17:40;;;;;;;1999.90;999.90;;;8.50;99.90;;;;;;4994744;28;20210;-68
2024/02/01 00:20:07;;;;;;;1999.90;999.90;;;9.50;99.90;;;;;;4995030;28;20179;-69
2024/02/01 00:22:32;;;;;;;1999.90;999.90;;;8.90;99.90;;;;;;4994675;28;20203;-69
2024/02/01 00:24:59;;;;;;;1999.90;999.90;;;9.80;99.90;;;;;;4994710;28;20845;-68
2024/02/01 00:27:25;;;;;;;1999.90;999.90;;;9.60;99.90;;;;;;4994263;28;20663;-69
2024/02/01 00:29:50;;;;;;;1999.90;999.90;;;9.70;99.90;;;;;;4994477;28;20402;-68
2024/02/01 00:32:16;;;;;;;1999.90;999.90;;;9.50;99.90;;;;;;4994204;28;20186;-69
2024/02/01 00:34:45;;;;;;;1999.90;999.90;;;9.70;99.90;;;;;;4994303;28;20264;-69
2024/02/01 00:37:11;;;;;;;1999.90;999.90;;;9.30;1.00;;;;;;4994198;28;20166;-69
2024/02/01 00:39:37;;;;;;;1999.90;999.90;;;9.70;1.00;;;;;;4994365;28;20932;-69
2024/02/01 00:42:02;;;;;;;1999.90;999.90;;;9.70;1.00;;;;;;4994253;28;20200;-68
2024/02/01 00:44:28;;;;;;;1999.90;999.90;;;8.90;1.00;;;;;;4994321;28;20201;-68
2024/02/01 00:46:54;;;;;;;1999.90;999.90;;;9.40;1.00;;;;;;4993917;28;20168;-69
2024/02/01 00:49:19;;;;;;;1999.90;999.90;;;9.70;1.00;;;;;;4994103;28;20178;-69
2024/02/01 00:51:45;;;;;;;1999.90;999.90;;;9.00;1.00;;;;;;4994321;28;20174;-68
2024/02/01 00:54:11;;;;;;;1999.90;999.90;;;9.60;1.00;;;;;;4994319;28;20167;-69
2024/02/01 00:56:36;;;;;;;1999.90;999.90;;;9.70;1.00;;;;;;4994322;28;20177;-69
2024/02/01 00:59:02;;;;;;;1999.90;999.90;;;9.70;1.00;;;;;;4993866;28;20668;-68
2024/02/01 01:01:27;;;;;;;1999.90;999.90;;;9.60;1.00;;;;;;4994070;28;20626;-68
2024/02/01 01:03:55;;;;;;;1999.90;999.90;;;9.40;1.00;;;;;;4993958;28;20212;-69
2024/02/01 01:06:21;;;;;;;1999.90;999.90;;;9.80;1.00;;;;;;4993684;28;20259;-69
2024/02/01 01:08:46;;;;;;;1999.90;999.90;;;9.30;1.00;;;;;;4993762;28;20492;-70
2024/02/01 01:11:12;;;;;;;1999.90;999.90;;;9.10;1.00;;;;;;4994091;28;20435;-69
2024/02/01 01:13:38;;;;;;;1999.90;999.90;;;9.70;1.00;;;;;;4993677;28;20203;-70
2024/02/01 01:16:03;;;;;;;1999.90;999.90;;;9.20;1.00;;;;;;4994008;28;20180;-70
2024/02/01 01:18:29;;;;;;;1999.90;999.90;;;8.90;1.00;;;;;;4993500;28;20187;-69
2024/02/01 01:20:57;;;;;;;1999.90;999.90;;;9.20;1.00;;;;;;4993893;28;20278;-70
2024/02/01 01:23:23;;;;;;;1999.90;999.90;;;9.50;1.00;;;;;;4994273;28;20571;-70
2024/02/01 01:25:48;;;;;;;1999.90;999.90;;;9.40;1.00;;;;;;4995182;28;20411;-70
2024/02/01 01:28:14;;;;;;;1999.90;999.90;;;9.30;1.00;;;;;;4993325;28;20630;-68
2024/02/01 01:30:39;;;;;;;1999.90;999.90;;;9.00;29.30;;;;;;4993661;28;20167;-70
2024/02/01 01:33:05;;;;;;;1999.90;999.90;;;8.70;95.00;;;;;;4993360;28;20205;-69
2024/02/01 01:35:30;;;;;;;1999.90;999.90;;;8.90;99.90;;;;;;4994244;28;20682;-69
2024/02/01 01:37:56;;;;;;;1999.90;999.90;;;8.40;99.90;;;;;;4994679;28;20209;-69
2024/02/01 01:40:23;;;;;;;1999.90;999.90;;;8.60;99.90;;;;;;4993274;28;20166;-69
2024/02/01 01:42:48;;;;;;;1999.90;999.90;;;8.40;99.90;;;;;;4993094;28;20214;-69
2024/02/01 01:45:15;;;;;;;1999.90;999.90;;;8.50;99.90;;;;;;4993247;28;20410;-71
2024/02/01 01:47:40;;;;;;;1999.90;999.90;;;8.00;99.90;;;;;;4992894;28;20536;-71
2024/02/01 01:50:07;;;;;;;1999.90;999.90;;;8.70;99.90;;;;;;4993131;28;20489;-70
2024/02/01 01:52:35;;;;;;;1999.90;999.90;;;7.90;99.90;;;;;;4996104;28;20200;-70
2024/02/01 01:55:02;;;;;;;1999.90;999.90;;;8.80;99.90;;;;;;4993045;28;20480;-71
2024/02/01 01:57:28;;;;;;;1999.90;999.90;;;8.10;99.90;;;;;;4996567;28;20409;-71
2024/02/01 01:59:55;;;;;;;1999.90;999.90;;;8.40;99.90;;;;;;4994684;28;20528;-70
2024/02/01 02:02:21;;;;;;;1999.90;999.90;;;8.60;99.90;;;;;;4992651;28;20469;-70
2024/02/01 02:04:50;;;;;;;1999.90;999.90;;;8.30;99.90;;;;;;4994769;28;20444;-70
2024/02/01 02:07:16;;;;;;;1999.90;999.90;;;8.80;99.90;;;;;;5004906;28;20441;-71
2024/02/01 02:09:42;;;;;;;1999.90;999.90;;;8.90;99.90;;;;;;4998543;28;20409;-70
2024/02/01 02:12:10;;;;;;;1999.90;999.90;;;8.10;99.90;;;;;;4992769;28;20189;-70
2024/02/01 02:14:36;;;;;;;1999.90;999.90;;;;;;;;;;4999674;28;20167;-70
2024/02/01 02:17:03;;;;;;;1999.90;999.90;;;7.90;99.90;;;;;;4996675;28;20760;-70
2024/02/01 02:19:28;;;;;;;1999.90;999.90;;;7.70;99.90;;;;;;4992739;28;20412;-71
2024/02/01 02:21:54;;;;;;;1999.90;999.90;;;8.40;99.90;;;;;;4992484;28;20936;-71
2024/02/01 02:24:20;;;;;;;1999.90;999.90;;;8.80;99.90;;;;;;4992718;28;20239;-70
2024/02/01 02:26:47;;;;;;;1999.90;999.90;;;8.70;99.90;;;;;;4992341;28;20776;-71
2024/02/01 02:29:15;;;;;;;1999.90;999.90;;;8.20;99.90;;;;;;4992654;28;20409;-70
2024/02/01 02:31:46;;;;;;;1999.90;999.90;;;8.20;99.90;;;;;;4992426;28;20437;-70
2024/02/01 02:34:12;;;;;;;1999.90;999.90;;;7.80;99.90;;;;;;4992474;28;21040;-70
2024/02/01 02:36:38;;;;;;;1999.90;999.90;;;8.10;99.90;;;;;;4993899;28;20585;-70
2024/02/01 02:39:04;;;;;;;1999.90;999.90;;;8.20;99.90;;;;;;4995408;28;20513;-70
2024/02/01 02:41:29;;;;;;;1999.90;999.90;;;7.60;99.90;;;;;;4992452;28;20166;-70
2024/02/01 02:43:56;;;;;;;1999.90;999.90;;;8.20;99.90;;;;;;4992274;28;20462;-71
2024/02/01 02:46:24;;;;;;;1999.90;999.90;;;8.30;99.90;;;;;;4994266;28;20528;-70
2024/02/01 02:48:50;;;;;;;1999.90;999.90;;;8.60;99.90;;;;;;4992203;28;20398;-70
2024/02/01 02:51:16;;;;;;;1999.90;999.90;;;8.40;99.90;;;;;;4994470;28;20946;-71
2024/02/01 02:53:42;;;;;;;1999.90;999.90;;;8.70;99.90;;;;;;4993980;28;20425;-70
2024/02/01 02:56:08;;;;;;;1999.90;999.90;;;8.50;99.90;;;;;;4994357;28;20227;-71
2024/02/01 02:58:37;;;;;;;1999.90;999.90;;;8.20;99.90;;;;;;4992162;28;20410;-69
2024/02/01 03:01:07;;;;;;;1999.90;999.90;;;9.00;99.90;;;;;;4992390;28;20167;-71
2024/02/01 03:03:43;;;;;;;1999.90;999.90;;;8.00;99.90;;;;;;4992285;28;20473;-69
2024/02/01 03:06:09;;;;;;;1999.90;999.90;;;7.90;99.90;;;;;;4992295;28;20948;-71
2024/02/01 03:08:42;;;;;;;1999.90;999.90;;;8.90;99.90;;;;;;4994026;28;20501;-71
2024/02/01 03:11:12;;;;;;;1999.90;999.90;;;8.00;99.90;;;;;;4984400;28;20924;-71
2024/02/01 03:13:42;;;;;;;1999.90;999.90;;;8.70;99.90;;;;;;4997951;28;21010;-71
2024/02/01 03:16:21;;;;;;;1999.90;999.90;;;8.40;99.90;;;;;;4992370;28;20506;-71
2024/02/01 03:18:48;;;;;;;1999.90;999.90;;;8.00;99.90;;;;;;4993812;28;20448;-70
2024/02/01 03:21:14;;;;;;;1999.90;999.90;;;8.40;99.90;;;;;;4999423;28;20416;-71
2024/02/01 03:23:42;;;;;;;1999.90;999.90;;;8.50;99.90;;;;;;4994167;28;20460;-69
2024/02/01 03:26:08;;;;;;;1999.90;999.90;;;8.70;99.90;;;;;;4992056;28;20456;-69
2024/02/01 03:28:34;;;;;;;1999.90;999.90;;;8.50;99.90;;;;;;4994929;28;20409;-70
2024/02/01 03:31:01;;;;;;;1999.90;999.90;;;8.40;99.90;;;;;;4995701;28;20463;-70
2024/02/01 03:33:30;;;;;;;1999.90;999.90;;;8.30;99.90;;;;;;4999495;28;20206;-68
2024/02/01 03:35:57;;;;;;;1999.90;999.90;;;8.20;99.90;;;;;;4997887;28;20412;-70
2024/02/01 03:38:23;;;;;;;1999.90;999.90;;;8.60;99.90;;;;;;4999479;28;20410;-69
2024/02/01 03:40:49;;;;;;;1999.90;999.90;;;8.40;99.90;;;;;;4995537;28;20509;-69
2024/02/01 03:43:14;;;;;;;1999.90;999.90;;;8.40;99.90;;;;;;4999322;28;20520;-69
2024/02/01 03:45:48;;;;;;;1999.90;999.90;;;8.70;99.90;;;;;;4995450;28;20177;-70
2024/02/01 03:48:16;;;;;;;1999.90;999.90;;;8.10;99.90;;;;;;4995348;28;20174;-68
2024/02/01 03:50:42;;;;;;;1999.90;999.90;;;8.90;99.90;;;;;;4995424;28;20405;-68
2024/02/01 03:53:10;;;;;;;1999.90;999.90;;;8.60;99.90;;;;;;4995329;28;20845;-69
2024/02/01 03:55:37;;;;;;;1999.90;999.90;;;8.60;99.90;;;;;;4995246;28;20261;-69
2024/02/01 03:58:02;;;;;;;1999.90;999.90;;;9.30;99.90;;;;;;4994952;28;20508;-68
2024/02/01 04:00:28;;;;;;;1999.90;999.90;;;8.20;99.90;;;;;;4995214;28;20502;-69
2024/02/01 04:03:03;;;;;;;1999.90;999.90;;;8.50;99.90;;;;;;5000285;28;20293;-70
2024/02/01 04:05:36;;;;;;;1999.90;999.90;;;8.80;99.90;;;;;;5003334;28;20183;-68
2024/02/01 04:08:06;;;;;;;1999.90;999.90;;;8.70;99.90;;;;;;4994728;28;20414;-69
2024/02/01 04:10:32;;;;;;;1999.90;999.90;;;8.20;99.90;;;;;;4995225;28;20412;-69
2024/02/01 04:12:58;;;;;;;1999.90;999.90;;;8.70;99.90;;;;;;4995951;28;20866;-69
2024/02/01 04:15:24;;;;;;;1999.90;999.90;;;8.80;99.90;;;;;;4999151;28;20405;-69
2024/02/01 04:17:50;;;;;;;1999.90;999.90;;;8.80;99.90;;;;;;4994580;28;20174;-68
2024/02/01 04:20:15;;;;;;;1999.90;999.90;;;8.70;99.90;;;;;;4994838;28;20182;-68
2024/02/01 04:22:42;;;;;;;1999.90;999.90;;;8.70;99.90;;;;;;4994989;28;20861;-69
2024/02/01 04:25:08;;;;;;;1999.90;999.90;;;8.80;99.90;;;;;;4995273;28;20173;-68
2024/02/01 04:27:35;;;;;;;1999.90;999.90;;;8.30;99.90;;;;;;4998643;28;20421;-69
2024/02/01 04:30:00;;;;;;;1999.90;999.90;;;9.20;99.90;;;;;;4999609;28;20423;-69
2024/02/01 04:32:26;;;;;;;1999.90;999.90;;;9.10;99.90;;;;;;4996699;28;20527;-69
2024/02/01 04:34:51;;;;;;;1999.90;999.90;;;9.20;99.90;;;;;;5002232;28;20223;-68
2024/02/01 04:37:18;;;;;;;1999.90;999.90;;;9.10;99.90;;;;;;4998153;28;20176;-69
2024/02/01 04:39:45;;;;;;;1999.90;999.90;;;8.50;99.90;;;;;;4997473;28;20193;-69
2024/02/01 04:42:14;;;;;;;1999.90;999.90;;;8.80;99.90;;;;;;4994126;28;20996;-68
2024/02/01 04:44:43;;;;;;;1999.90;999.90;;;9.20;99.90;;;;;;4994361;28;20756;-68
2024/02/01 04:47:10;;;;;;;1999.90;999.90;;;9.20;99.90;;;;;;4994074;28;20405;-68
2024/02/01 04:49:36;;;;;;;1999.90;999.90;;;8.90;99.90;;;;;;4997560;28;20418;-70
2024/02/01 04:52:03;;;;;;;1999.90;999.90;;;9.50;99.90;;;;;;5005984;28;20474;-68
2024/02/01 04:54:28;;;;;;;1999.90;999.90;;;8.50;99.90;;;;;;5008594;28;20425;-70
2024/02/01 04:56:55;;;;;;;1999.90;999.90;;;9.30;99.90;;;;;;5000704;28;20442;-69
2024/02/01 04:59:21;;;;;;;1999.90;999.90;;;9.40;99.90;;;;;;4995033;28;20672;-68
2024/02/01 05:01:46;;;;;;;1999.90;999.90;;;8.60;99.90;;;;;;4994195;28;20508;-68
2024/02/01 05:04:13;;;;;;;1999.90;999.90;;;8.90;99.90;;;;;;5054372;23;20236;-66
2024/02/01 05:06:42;;;;;;;1999.90;999.90;;;8.80;99.90;;;;;;5013597;28;20689;-67
2024/02/01 05:09:23;;;;;;;1999.90;999.90;;;9.40;99.90;;;;;;5013361;28;20395;-66
2024/02/01 05:11:55;;;;;;;1999.90;999.90;;;9.30;99.90;;;;;;5013426;28;20421;-66
2024/02/01 05:14:21;;;;;;;1999.90;999.90;;;9.30;99.90;;;;;;5013332;28;20420;-66
2024/02/01 05:16:50;;;;;;;1999.90;999.90;;;9.20;99.90;;;;;;5013079;28;20391;-67
2024/02/01 05:19:19;;;;;;;1999.90;999.90;;;9.40;99.90;;;;;;5013354;28;20166;-66
2024/02/01 05:21:45;;;;;;;1999.90;999.90;;;8.60;99.90;;;;;;5013284;28;20393;-66
2024/02/01 05:24:13;;;;;;;1999.90;999.90;;;9.40;99.90;;;;;;5012979;28;20457;-67
2024/02/01 05:26:50;;;;;;;1999.90;999.90;;;9.30;99.90;;;;;;5013132;28;20247;-66
2024/02/01 05:29:21;;;;;;;1999.90;999.90;;;8.70;99.90;;;;;;5013077;28;20405;-66
2024/02/01 05:31:49;;;;;;;1999.90;999.90;;;9.30;99.90;;;;;;5013269;28;20789;-67
2024/02/01 05:34:17;;;;;;;1999.90;999.90;;;8.90;99.90;;;;;;5012858;28;20955;-67
2024/02/01 05:36:47;;;;;;;1999.90;999.90;;;9.50;99.90;;;;;;5012857;28;20416;-67
2024/02/01 05:39:26;;;;;;;1999.90;999.90;;;9.30;99.90;;;;;;5013132;28;20467;-68
2024/02/01 05:42:04;;;;;;;1999.90;999.90;;;9.50;99.90;;;;;;5013151;28;20448;-67
2024/02/01 05:44:30;;;;;;;1999.90;999.90;;;9.40;99.90;;;;;;5012998;28;20422;-66
2024/02/01 05:46:57;;;;;;;1999.90;999.90;;;9.60;99.90;;;;;;5012610;28;20407;-66
2024/02/01 05:49:29;;;;;;;1999.90;999.90;;;9.50;99.90;;;;;;5012835;28;20398;-66
2024/02/01 05:52:02;;;;;;;1999.90;999.90;;;9.50;99.90;;;;;;5011986;28;20393;-66
2024/02/01 05:54:28;;;;;;;1999.90;999.90;;;9.40;99.90;;;;;;5012890;28;20776;-66
2024/02/01 05:56:54;;;;;;;1999.90;999.90;;;9.10;99.90;;;;;;5012413;28;20888;-66
2024/02/01 05:59:20;;;;;;;1999.90;999.90;;;9.40;99.90;;;;;;5012498;28;20429;-66
2024/02/01 06:01:47;;;;;;;1999.90;999.90;;;9.50;99.90;;;;;;5012615;28;20414;-66
2024/02/01 06:04:14;;;;;;;1999.90;999.90;;;9.10;99.90;;;;;;5012287;28;21165;-67
2024/02/01 06:06:44;;;;;;;1999.90;999.90;;;9.20;99.90;;;;;;5012481;28;20394;-67
2024/02/01 06:09:14;;;;;;;1999.90;999.90;;;9.40;99.90;;;;;;5012520;28;20393;-66
2024/02/01 06:11:44;;;;;;;1999.90;999.90;;;9.50;99.90;;;;;;5012347;28;20401;-67
2024/02/01 06:14:11;;;;;;;1999.90;999.90;;;9.10;99.90;;;;;;5012371;28;20429;-66
2024/02/01 06:16:36;;;;;;;1999.90;999.90;;;9.50;99.90;;;;;;5012398;28;20980;-66
2024/02/01 06:19:02;;;;;;;1999.90;999.90;;;9.30;99.90;;;;;;5012028;28;20505;-66
2024/02/01 06:21:28;;;;;;;1999.90;999.90;;;9.40;99.90;;;;;;5012170;28;20167;-66
2024/02/01 06:23:54;;;;;;;1999.90;999.90;;;9.50;99.90;;;;;;5012223;28;20462;-66
2024/02/01 06:26:22;;;;;;;1999.90;999.90;;;9.30;99.90;;;;;;5012756;28;20641;-67
2024/02/01 06:28:47;;;;;;;1999.90;999.90;;;8.70;99.90;;;;;;5012961;28;20397;-67
2024/02/01 06:31:13;;;;;;;1999.90;999.90;;;9.50;99.90;;;;;;5013284;28;20401;-67
2024/02/01 06:33:42;;;;;;;1999.90;999.90;;;9.10;99.90;;;;;;5013229;28;20190;-67
2024/02/01 06:36:13;;;;;;;1999.90;999.90;;;9.00;99.90;;;;;;5013320;28;20406;-67
2024/02/01 06:41:28;;;;;;;1999.90;999.90;;;9.00;99.90;;;;;;5032668;28;20474;-66
2024/02/01 06:49:39;;;;;;;1999.90;999.90;;;9.10;99.90;;;;;;5040652;28;20404;-67
2024/02/01 06:58:03;;;;;;;1999.90;999.90;;;9.20;99.90;;;;;;5033210;28;20485;-66
2024/02/01 07:00:51;;;;;;;1999.90;999.90;;;9.10;99.90;;;;;;5032247;28;20462;-66
2024/02/01 07:08:26;;;;;;;1999.90;999.90;;;9.00;99.90;;;;;;5035387;28;20404;-66
2024/02/01 07:11:00;;;;;;;1999.90;999.90;;;8.70;99.90;;;;;;5035563;28;20174;-66
2024/02/01 07:13:45;;;;;;;1999.90;999.90;;;9.00;99.90;;;;;;5035341;28;20944;-66
2024/02/01 07:16:24;;;;;;;1999.90;999.90;;;9.00;99.90;;;;;;5035568;28;20411;-67
2024/02/01 07:22:03;;;;;;;1999.90;999.90;;;8.70;99.90;;;;;;5020393;28;20421;-69
2024/02/01 07:57:36;;;;;;;1999.90;999.90;;;8.40;99.90;;;;;;5034361;28;20402;-65
2024/02/01 08:00:05;;;;;;;1999.90;999.90;;;7.80;99.90;;;;;;5034544;28;20431;-66
2024/02/01 08:08:00;;;;;;;1999.90;999.90;;;7.10;99.90;;;;;;5034398;28;20402;-66
2024/02/01 08:10:25;;;;;;;1999.90;999.90;;;7.20;99.90;;;;;;5034090;28;20403;-66
2024/02/01 08:12:51;;;;;;;1999.90;999.90;;;6.90;99.90;;;;;;5034252;28;20223;-67
2024/02/01 08:15:20;;;;;;;1999.90;999.90;;;6.90;99.90;;;;;;5033274;28;20802;-67
2024/02/01 08:17:50;;;;;;;1999.90;999.90;;;7.00;86.00;;;;;;5034001;28;20164;-66
2024/02/01 08:20:17;;;;;;;1999.90;999.90;;;6.80;1.00;;;;;;5034603;28;20410;-66
2024/02/01 08:22:43;;;;;;;1999.90;999.90;;;6.70;1.00;;;;;;5033827;28;20454;-66
2024/02/01 08:25:10;;;;;;;1999.90;999.90;;;6.70;1.00;;;;;;5034185;28;20843;-66
2024/02/01 08:27:36;;;;;;;1999.90;999.90;;;6.60;1.00;;;;;;5033749;28;20780;-68
2024/02/01 08:30:12;;;;;;;1999.90;999.90;;;6.60;1.00;;;;;;5033880;28;20402;-67
2024/02/01 08:32:41;;;;;;;1999.90;999.90;;;6.50;1.00;;;;;;5033844;28;20463;-67
2024/02/01 08:35:10;;;;;;;1999.90;999.90;;;6.70;1.00;;;;;;5033862;28;20408;-66
2024/02/01 08:37:36;;;;;;;1999.90;999.90;;;6.50;1.00;;;;;;5033444;28;20422;-67
2024/02/01 08:40:02;;;;;;;1999.90;999.90;;;6.70;6.30;;;;;;5033771;28;20400;-67
2024/02/01 08:42:29;;;;;;;1999.90;999.90;;;6.50;1.00;;;;;;5033583;28;20466;-67
2024/02/01 08:44:55;;;;;;;1999.90;999.90;;;6.70;21.10;;;;;;5033759;28;20435;-66
2024/02/01 08:47:23;;;;;;;1999.90;999.90;;;6.80;46.90;;;;;;5033626;28;20411;-66
2024/02/01 08:49:49;;;;;;;1999.90;999.90;;;7.00;23.30;;;;;;5033620;28;20913;-66
2024/02/01 08:52:15;;;;;;;1999.90;999.90;;;6.50;99.90;;;;;;5033498;28;20494;-67
2024/02/01 08:54:41;;;;;;;1999.90;999.90;;;7.20;95.80;;;;;;5033572;28;20490;-67
2024/02/01 08:57:13;;;;;;;1999.90;999.90;;;7.10;94.50;;;;;;5033290;28;20191;-68
2024/02/01 08:59:40;;;;;;;1999.90;999.90;;;7.00;98.20;;;;;;5033422;28;20898;-67
2024/02/01 09:02:14;;;;;;;1999.90;999.90;;;7.10;99.90;;;;;;5033093;28;20415;-66
2024/02/01 09:04:41;;;;;;;1999.90;999.90;;;7.10;99.90;;;;;;5033401;28;20416;-66
2024/02/01 09:07:06;;;;;;;1999.90;999.90;;;7.10;99.90;;;;;;5032994;28;20910;-66
2024/02/01 09:09:34;;;;;;;1999.90;999.90;;;7.60;99.90;;;;;;5033147;28;20411;-66
2024/02/01 09:12:00;;;;;;;1999.90;999.90;;;;;;;;;;5033073;28;20172;-66
2024/02/01 09:14:26;;;;;;;1999.90;999.90;;;6.80;99.90;;;;;;5033078;28;20414;-66
2024/02/01 09:16:53;;;;;;;1999.90;999.90;;;7.70;99.90;;;;;;5032860;28;20891;-66
2024/02/01 09:19:19;;;;;;;1999.90;999.90;;;7.40;99.90;;;;;;5033114;28;20442;-66
2024/02/01 09:21:44;;;;;;;1999.90;999.90;;;7.50;99.90;;;;;;5032828;28;20489;-66
2024/02/01 09:24:10;;;;;;;1999.90;999.90;;;7.40;99.90;;;;;;5032881;28;20219;-66
2024/02/01 09:26:35;;;;;;;1999.90;999.90;;;7.70;99.90;;;;;;5032663;28;20624;-66
2024/02/01 09:29:11;;;;;;;1999.90;999.90;;;7.40;99.90;;;;;;5032614;28;20182;-66
2024/02/01 09:31:37;;;;;;;1999.90;999.90;;;7.30;99.90;;;;;;5032675;28;20255;-67
2024/02/01 09:34:04;;;;;;;1999.90;999.90;;;7.30;99.90;;;;;;5026540;28;20457;-68
2024/02/01 09:36:30;;;;;;;1999.90;999.90;;;7.80;99.90;;;;;;5013496;28;20415;-68
2024/02/01 09:38:56;;;;;;;1999.90;999.90;;;7.40;99.90;;;;;;5013045;28;20792;-68
2024/02/01 09:41:22;;;;;;;1999.90;999.90;;;7.50;99.90;;;;;;5008517;28;20412;-67
2024/02/01 09:43:52;;;;;;;1999.90;999.90;;;7.50;99.90;;;;;;5014157;28;20255;-67
2024/02/01 09:46:19;;;;;;;1999.90;999.90;;;8.10;99.90;;;;;;5013710;28;20201;-67
2024/02/01 09:48:45;;;;;;;1999.90;999.90;;;8.20;99.90;;;;;;5015982;28;20408;-68
2024/02/01 09:51:17;;;;;;;1999.90;999.90;;;8.20;99.90;;;;;;5020986;28;20416;-67
2024/02/01 09:53:48;;;;;;;1999.90;999.90;;;7.90;99.90;;;;;;5017065;28;20454;-66
2024/02/01 09:56:14;;;;;;;1999.90;999.90;;;7.20;99.90;;;;;;5016598;28;20400;-68
2024/02/01 09:58:41;;;;;;;1999.90;999.90;;;7.70;48.50;;;;;;5016225;28;20559;-68
2024/02/01 10:01:09;;;;;;;1999.90;999.90;;;8.30;60.30;;;;;;5017795;28;20443;-69
2024/02/01 10:03:34;;;;;;;1999.90;999.90;;;8.30;14.40;;;;;;5016316;28;20522;-69
2024/02/01 10:06:04;;;;;;;1999.90;999.90;;;7.70;19.90;;;;;;5014743;28;20412;-66
2024/02/01 10:08:33;;;;;;;1999.90;999.90;;;8.30;16.60;;;;;;5011071;28;20196;-67
2024/02/01 10:11:01;;;;;;;1999.90;999.90;;;8.60;1.00;;;;;;5010247;28;20500;-67
2024/02/01 10:13:33;;;;;;;1999.90;999.90;;;8.30;1.00;;;;;;5012132;28;20526;-67
2024/02/01 10:16:02;;;;;;;1999.90;999.90;;;7.90;8.60;;;;;;5012240;28;20409;-66
2024/02/01 10:18:27;;;;;;;1999.90;999.90;;;8.20;1.00;;;;;;5011102;28;20415;-66
2024/02/01 10:20:57;;;;;;;1999.90;999.90;;;8.30;1.00;;;;;;5011853;28;20411;-66
2024/02/01 10:23:23;;;;;;;1999.90;999.90;;;8.00;1.00;;;;;;5011961;28;20205;-67
2024/02/01 10:25:53;;;;;;;1999.90;999.90;;;8.50;1.00;;;;;;5011385;28;20747;-66
2024/02/01 10:28:25;;;;;;;1999.90;999.90;;;8.10;1.00;;;;;;5011420;28;20417;-65
2024/02/01 10:30:51;;;;;;;1999.90;999.90;;;8.10;1.00;;;;;;5012063;28;20412;-66
2024/02/01 10:33:26;;;;;;;1999.90;999.90;;;8.60;1.00;;;;;;5012270;28;20451;-67
2024/02/01 10:35:53;;;;;;;1999.90;999.90;;;7.80;1.00;;;;;;5016716;28;20796;-68
2024/02/01 10:38:24;;;;;;;1999.90;999.90;;;8.20;1.00;;;;;;5015099;28;20424;-67
2024/02/01 10:40:52;;;;;;;1999.90;999.90;;;8.90;1.00;;;;;;5016759;28;20415;-68
2024/02/01 10:43:37;;;;;;;1999.90;999.90;;;7.90;1.00;;;;;;5015586;28;20456;-67
2024/02/01 10:46:08;;;;;;;1999.90;999.90;;;8.70;1.00;;;;;;5015673;28;20447;-68
2024/02/01 10:48:50;;;;;;;1999.90;999.90;;;8.00;1.00;;;;;;5013715;28;20950;-68
2024/02/01 10:51:16;;;;;;;1999.90;999.90;;;8.10;1.00;;;;;;5016585;28;20404;-68
2024/02/01 10:53:46;;;;;;;1999.90;999.90;;;8.40;1.00;;;;;;5015838;28;20440;-68
2024/02/01 10:56:14;;;;;;;1999.90;999.90;;;8.20;1.00;;;;;;5018949;28;20434;-66
2024/02/01 10:58:46;;;;;;;1999.90;999.90;;;8.20;1.00;;;;;;5017758;28;20435;-67
2024/02/01 11:01:14;;;;;;;1999.90;999.90;;;8.30;1.00;;;;;;5016377;28;20889;-69
2024/02/01 11:03:57;;;;;;;1999.90;999.90;;;9.20;1.00;;;;;;5025970;23;20484;-67
2024/02/01 11:06:25;;;;;;;1999.90;999.90;;;8.40;1.00;;;;;;4992296;28;20940;-67
2024/02/01 11:08:57;;;;;;;1999.90;999.90;;;9.10;1.00;;;;;;4991294;28;20896;-68
2024/02/01 11:11:34;;;;;;;1999.90;999.90;;;8.40;1.00;;;;;;4991506;28;20408;-67
2024/02/01 11:14:11;;;;;;;1999.90;999.90;;;8.80;1.00;;;;;;4991619;28;20866;-68
2024/02/01 11:16:46;;;;;;;1999.90;999.90;;;8.40;1.00;;;;;;4991733;28;20410;-67
2024/02/01 11:19:17;;;;;;;1999.90;999.90;;;9.10;1.00;;;;;;4991201;28;20415;-67
2024/02/01 11:21:50;;;;;;;1999.90;999.90;;;8.90;99.90;;;;;;4991736;28;20443;-67
2024/02/01 11:24:20;;;;;;;1999.90;999.90;;;8.60;99.90;;;;;;4991503;28;20461;-67
2024/02/01 11:26:47;;;;;;;1999.90;999.90;;;9.50;1.00;;;;;;4990116;28;20426;-68
2024/02/01 11:29:18;;;;;;;1999.90;999.90;;;9.10;1.00;;;;;;4991829;28;20442;-68
2024/02/01 11:31:44;;;;;;;1999.90;999.90;;;9.50;1.00;;;;;;4991284;28;20473;-67
2024/02/01 11:34:13;;;;;;;1999.90;999.90;;;9.90;99.90;;;;;;4991247;28;20418;-68
2024/02/01 11:36:39;;;;;;;1999.90;999.90;;;9.00;99.90;;;;;;4992040;28;20895;-68
2024/02/01 11:39:09;;;;;;;1999.90;999.90;;;9.60;1.00;;;;;;4991040;28;20418;-68
2024/02/01 11:41:36;;;;;;;1999.90;999.90;;;9.70;99.90;;;;;;4991485;28;20714;-68
2024/02/01 11:44:04;;;;;;;1999.90;999.90;;;9.50;1.00;;;;;;4991632;28;20522;-68
2024/02/01 11:46:30;;;;;;;1999.90;999.90;;;9.30;1.00;;;;;;4991911;28;20415;-68
2024/02/01 11:48:56;;;;;;;1999.90;999.90;;;9.80;1.00;;;;;;4990812;28;20489;-68
2024/02/01 11:51:24;;;;;;;1999.90;999.90;;;10.00;99.90;;;;;;4993535;28;20949;-68
2024/02/01 11:53:51;;;;;;;1999.90;999.90;;;10.20;99.90;;;;;;4995078;28;20189;-68
2024/02/01 11:56:18;;;;;;;1999.90;999.90;;;10.20;57.30;;;;;;4994869;28;20754;-68
2024/02/01 11:58:44;;;;;;;1999.90;999.90;;;10.20;99.90;;;;;;4994323;28;20416;-67
2024/02/01 12:01:10;;;;;;;1999.90;999.90;;;10.60;99.90;;;;;;4995033;28;20419;-68
2024/02/01 12:03:45;;;;;;;1999.90;999.90;;;11.00;1.00;;;;;;4994290;28;20624;-68
2024/02/01 12:06:11;;;;;;;1999.90;999.90;;;11.30;99.90;;;;;;4995150;28;20551;-68
2024/02/01 12:08:36;;;;;;;1999.90;999.90;;;11.40;99.90;;;;;;4994144;28;20407;-68
2024/02/01 12:11:02;;;;;;;1999.90;999.90;;;11.30;1.00;;;;;;4994332;28;20166;-68
2024/02/01 12:13:28;;;;;;;1999.90;999.90;;;10.90;99.90;;;;;;4994629;28;20199;-68
2024/02/01 12:15:53;;;;;;;1999.90;999.90;;;11.70;1.00;;;;;;4994833;28;20702;-67
2024/02/01 12:18:19;;;;;;;1999.90;999.90;;;11.50;63.70;;;;;;4993607;28;20182;-68
2024/02/01 12:20:48;;;;;;;1999.90;999.90;;;11.40;99.90;;;;;;4994683;28;20181;-68
2024/02/01 12:23:15;;;;;;;1999.90;999.90;;;11.60;1.00;;;;;;4994448;28;20456;-68
2024/02/01 12:25:46;;;;;;;1999.90;999.90;;;11.90;1.00;;;;;;4994075;28;20504;-68
2024/02/01 12:28:11;;;;;;;1999.90;999.90;;;12.30;99.90;;;;;;4994084;28;20479;-67
2024/02/01 12:30:44;;;;;;;1999.90;999.90;;;12.40;1.00;;;;;;4994643;28;20985;-68
2024/02/01 12:33:12;;;;;;;1999.90;999.90;;;12.10;1.00;;;;;;4994140;28;20255;-68
2024/02/01 12:35:39;;;;;;;1999.90;999.90;;;12.30;1.00;;;;;;4994523;28;20793;-68
2024/02/01 12:38:05;;;;;;;1999.90;999.90;;;12.50;1.00;;;;;;4993703;28;20411;-67
2024/02/01 12:40:31;;;;;;;1999.90;999.90;;;12.70;1.00;;;;;;4993731;28;20408;-68
2024/02/01 12:43:01;;;;;;;1999.90;999.90;;;13.00;1.00;;;;;;4994232;28;20456;-68
2024/02/01 12:45:27;;;;;;;1999.90;999.90;;;13.40;1.00;;;;;;4994204;28;20204;-68
2024/02/01 12:47:52;;;;;;;1999.90;999.90;;;13.50;99.90;;;;;;4993104;28;20409;-68
2024/02/01 12:50:20;;;;;;;1999.90;999.90;;;13.80;99.90;;;;;;4993996;28;20163;-68
2024/02/01 12:52:46;;;;;;;1999.90;999.90;;;13.70;99.90;;;;;;4994227;28;20175;-68
2024/02/01 12:55:12;;;;;;;1999.90;999.90;;;13.40;99.90;;;;;;4993629;28;20433;-68
2024/02/01 12:57:40;;;;;;;1999.90;999.90;;;13.50;99.90;;;;;;4993402;28;20896;-68
2024/02/01 13:00:07;;;;;;;1999.90;999.90;;;13.80;99.90;;;;;;4993967;28;20417;-68
2024/02/01 13:02:34;;;;;;;1999.90;999.90;;;13.40;1.00;;;;;;4993079;28;20504;-68
2024/02/01 13:04:59;;;;;;;1999.90;999.90;;;13.30;1.00;;;;;;4993600;28;20533;-68
2024/02/01 13:07:25;;;;;;;1999.90;999.90;;;13.10;1.00;;;;;;4993123;28;20504;-68
2024/02/01 13:09:51;;;;;;;1999.90;999.90;;;13.00;1.00;;;;;;4993383;28;20185;-68
2024/02/01 13:12:21;;;;;;;1999.90;999.90;;;12.70;1.00;;;;;;4993542;28;20227;-68
2024/02/01 13:14:59;;;;;;;1999.90;999.90;;;12.30;1.00;;;;;;4993773;28;20197;-68